sensor_id;sensor_type;location;lat;lon;timestamp;P1;durP1;ratioP1;P2;durP2;ratioP2
40997;SDS011;26740;45.944;12.480;2022-11-15T00:02:09;7.50;;;5.15;;
40997;SDS011;26740;45.944;12.480;2022-11-15T00:04:35;9.52;;;5.68;;
40997;SDS011;26740;45.944;12.480;2022-11-15T00:07:00;9.75;;;5.00;;
40997;SDS011;26740;45.944;12.480;2022-11-15T00:09:26;9.18;;;5.18;;
40997;SDS011;26740;45.944;12.480;2022-11-15T00:11:51;11.70;;;5.43;;
40997;SDS011;26740;45.944;12.480;2022-11-15T00:14:17;6.55;;;4.65;;
40997;SDS011;26740;45.944;12.480;2022-11-15T00:16:42;8.43;;;5.13;;
40997;SDS011;26740;45.944;12.480;2022-11-15T00:19:08;6.63;;;4.65;;
40997;SDS011;26740;45.944;12.480;2022-11-15T00:21:34;8.23;;;4.80;;
40997;SDS011;26740;45.944;12.480;2022-11-15T00:24:00;8.15;;;5.22;;
40997;SDS011;26740;45.944;12.480;2022-11-15T00:26:25;7.05;;;4.40;;
40997;SDS011;26740;45.944;12.480;2022-11-15T00:28:51;9.05;;;5.18;;
40997;SDS011;26740;45.944;12.480;2022-11-15T00:31:18;5.93;;;4.30;;
40997;SDS011;26740;45.944;12.480;2022-11-15T00:33:44;8.65;;;4.63;;
40997;SDS011;26740;45.944;12.480;2022-11-15T00:36:09;10.70;;;5.47;;
40997;SDS011;26740;45.944;12.480;2022-11-15T00:38:37;6.45;;;4.80;;
40997;SDS011;26740;45.944;12.480;2022-11-15T00:41:04;9.25;;;4.93;;
40997;SDS011;26740;45.944;12.480;2022-11-15T00:43:31;6.82;;;4.97;;
40997;SDS011;26740;45.944;12.480;2022-11-15T00:45:57;6.97;;;5.30;;
40997;SDS011;26740;45.944;12.480;2022-11-15T00:48:23;8.68;;;5.55;;
40997;SDS011;26740;45.944;12.480;2022-11-15T00:50:49;14.50;;;4.90;;
40997;SDS011;26740;45.944;12.480;2022-11-15T00:53:15;8.10;;;5.10;;
40997;SDS011;26740;45.944;12.480;2022-11-15T00:55:41;6.63;;;4.63;;
40997;SDS011;26740;45.944;12.480;2022-11-15T00:58:07;7.15;;;4.55;;
40997;SDS011;26740;45.944;12.480;2022-11-15T01:00:33;6.40;;;4.05;;
40997;SDS011;26740;45.944;12.480;2022-11-15T01:03:02;7.75;;;4.80;;
40997;SDS011;26740;45.944;12.480;2022-11-15T01:05:28;8.23;;;4.70;;
40997;SDS011;26740;45.944;12.480;2022-11-15T01:07:54;8.18;;;5.35;;
40997;SDS011;26740;45.944;12.480;2022-11-15T01:10:21;9.43;;;4.32;;
40997;SDS011;26740;45.944;12.480;2022-11-15T01:12:48;6.25;;;4.10;;
40997;SDS011;26740;45.944;12.480;2022-11-15T01:15:14;6.72;;;4.85;;
40997;SDS011;26740;45.944;12.480;2022-11-15T01:17:40;8.20;;;5.28;;
40997;SDS011;26740;45.944;12.480;2022-11-15T01:20:06;7.65;;;4.72;;
40997;SDS011;26740;45.944;12.480;2022-11-15T01:22:32;9.32;;;5.13;;
40997;SDS011;26740;45.944;12.480;2022-11-15T01:24:58;9.52;;;4.57;;
40997;SDS011;26740;45.944;12.480;2022-11-15T01:27:24;9.80;;;4.80;;
40997;SDS011;26740;45.944;12.480;2022-11-15T01:29:49;9.70;;;4.97;;
40997;SDS011;26740;45.944;12.480;2022-11-15T01:32:15;8.85;;;4.75;;
40997;SDS011;26740;45.944;12.480;2022-11-15T01:34:41;6.75;;;5.05;;
40997;SDS011;26740;45.944;12.480;2022-11-15T01:37:07;5.60;;;3.92;;
40997;SDS011;26740;45.944;12.480;2022-11-15T01:39:32;7.38;;;4.35;;
40997;SDS011;26740;45.944;12.480;2022-11-15T01:41:58;5.72;;;4.28;;
40997;SDS011;26740;45.944;12.480;2022-11-15T01:46:56;8.43;;;4.85;;
40997;SDS011;26740;45.944;12.480;2022-11-15T01:49:24;6.82;;;4.80;;
40997;SDS011;26740;45.944;12.480;2022-11-15T01:51:52;10.75;;;5.70;;
40997;SDS011;26740;45.944;12.480;2022-11-15T01:54:20;8.57;;;5.15;;
40997;SDS011;26740;45.944;12.480;2022-11-15T01:56:52;8.38;;;4.85;;
40997;SDS011;26740;45.944;12.480;2022-11-15T01:59:21;8.70;;;4.72;;
40997;SDS011;26740;45.944;12.480;2022-11-15T02:01:48;12.15;;;5.55;;
40997;SDS011;26740;45.944;12.480;2022-11-15T02:04:19;8.93;;;4.60;;
40997;SDS011;26740;45.944;12.480;2022-11-15T02:06:49;11.40;;;4.10;;
40997;SDS011;26740;45.944;12.480;2022-11-15T02:09:16;7.68;;;4.15;;
40997;SDS011;26740;45.944;12.480;2022-11-15T02:11:42;9.48;;;4.88;;
40997;SDS011;26740;45.944;12.480;2022-11-15T02:14:10;12.90;;;5.43;;
40997;SDS011;26740;45.944;12.480;2022-11-15T02:25:04;6.53;;;4.90;;
40997;SDS011;26740;45.944;12.480;2022-11-15T02:33:24;7.47;;;4.32;;
40997;SDS011;26740;45.944;12.480;2022-11-15T02:36:00;7.30;;;4.07;;
40997;SDS011;26740;45.944;12.480;2022-11-15T02:38:37;7.50;;;4.80;;
40997;SDS011;26740;45.944;12.480;2022-11-15T02:44:24;10.82;;;5.68;;
40997;SDS011;26740;45.944;12.480;2022-11-15T02:47:13;6.22;;;4.97;;
40997;SDS011;26740;45.944;12.480;2022-11-15T02:49:52;9.23;;;5.45;;
40997;SDS011;26740;45.944;12.480;2022-11-15T02:52:20;7.95;;;4.68;;
40997;SDS011;26740;45.944;12.480;2022-11-15T02:54:57;6.70;;;4.63;;
40997;SDS011;26740;45.944;12.480;2022-11-15T02:57:31;6.45;;;4.18;;
40997;SDS011;26740;45.944;12.480;2022-11-15T03:00:03;7.60;;;4.63;;
40997;SDS011;26740;45.944;12.480;2022-11-15T03:08:16;5.95;;;4.00;;
40997;SDS011;26740;45.944;12.480;2022-11-15T03:13:52;6.78;;;4.05;;
40997;SDS011;26740;45.944;12.480;2022-11-15T03:19:19;5.68;;;3.85;;
40997;SDS011;26740;45.944;12.480;2022-11-15T03:22:06;8.18;;;5.25;;
40997;SDS011;26740;45.944;12.480;2022-11-15T03:27:02;11.55;;;4.80;;
40997;SDS011;26740;45.944;12.480;2022-11-15T03:29:42;8.30;;;4.78;;
40997;SDS011;26740;45.944;12.480;2022-11-15T03:32:15;9.77;;;5.00;;
40997;SDS011;26740;45.944;12.480;2022-11-15T03:34:49;8.00;;;4.72;;
40997;SDS011;26740;45.944;12.480;2022-11-15T03:37:21;14.25;;;4.80;;
40997;SDS011;26740;45.944;12.480;2022-11-15T03:39:50;7.55;;;5.18;;
40997;SDS011;26740;45.944;12.480;2022-11-15T03:45:23;6.60;;;4.97;;
40997;SDS011;26740;45.944;12.480;2022-11-15T03:47:58;9.27;;;5.53;;
40997;SDS011;26740;45.944;12.480;2022-11-15T03:50:27;10.90;;;5.47;;
40997;SDS011;26740;45.944;12.480;2022-11-15T03:52:54;6.68;;;4.53;;
40997;SDS011;26740;45.944;12.480;2022-11-15T03:55:21;6.13;;;4.43;;
40997;SDS011;26740;45.944;12.480;2022-11-15T03:57:48;15.07;;;4.55;;
40997;SDS011;26740;45.944;12.480;2022-11-15T04:00:16;5.20;;;3.95;;
40997;SDS011;26740;45.944;12.480;2022-11-15T04:02:42;6.55;;;4.28;;
40997;SDS011;26740;45.944;12.480;2022-11-15T04:05:08;9.00;;;4.68;;
40997;SDS011;26740;45.944;12.480;2022-11-15T04:07:33;6.07;;;3.97;;
40997;SDS011;26740;45.944;12.480;2022-11-15T04:09:59;9.55;;;4.13;;
40997;SDS011;26740;45.944;12.480;2022-11-15T04:12:29;9.27;;;4.47;;
40997;SDS011;26740;45.944;12.480;2022-11-15T04:15:03;4.75;;;3.15;;
40997;SDS011;26740;45.944;12.480;2022-11-15T04:17:52;5.50;;;4.13;;
40997;SDS011;26740;45.944;12.480;2022-11-15T04:20:20;6.45;;;4.30;;
40997;SDS011;26740;45.944;12.480;2022-11-15T04:23:08;8.98;;;4.03;;
40997;SDS011;26740;45.944;12.480;2022-11-15T04:25:59;5.13;;;3.70;;
40997;SDS011;26740;45.944;12.480;2022-11-15T04:28:26;4.50;;;3.30;;
40997;SDS011;26740;45.944;12.480;2022-11-15T04:30:52;7.15;;;4.40;;
40997;SDS011;26740;45.944;12.480;2022-11-15T04:33:18;10.43;;;5.20;;
40997;SDS011;26740;45.944;12.480;2022-11-15T04:35:44;4.78;;;3.40;;
40997;SDS011;26740;45.944;12.480;2022-11-15T04:38:29;5.55;;;3.42;;
40997;SDS011;26740;45.944;12.480;2022-11-15T04:40:55;6.18;;;3.40;;
40997;SDS011;26740;45.944;12.480;2022-11-15T04:43:21;5.95;;;4.03;;
40997;SDS011;26740;45.944;12.480;2022-11-15T04:45:46;5.32;;;3.08;;
40997;SDS011;26740;45.944;12.480;2022-11-15T04:48:12;4.03;;;3.13;;
40997;SDS011;26740;45.944;12.480;2022-11-15T04:50:37;2.75;;;2.30;;
40997;SDS011;26740;45.944;12.480;2022-11-15T04:53:03;3.60;;;2.40;;
40997;SDS011;26740;45.944;12.480;2022-11-15T04:55:29;3.67;;;2.53;;
40997;SDS011;26740;45.944;12.480;2022-11-15T04:57:58;2.97;;;2.40;;
40997;SDS011;26740;45.944;12.480;2022-11-15T05:00:24;4.35;;;2.97;;
40997;SDS011;26740;45.944;12.480;2022-11-15T05:02:51;4.25;;;3.13;;
40997;SDS011;26740;45.944;12.480;2022-11-15T05:05:35;3.80;;;2.80;;
40997;SDS011;26740;45.944;12.480;2022-11-15T05:08:01;6.65;;;3.80;;
40997;SDS011;26740;45.944;12.480;2022-11-15T05:10:27;4.93;;;2.85;;
40997;SDS011;26740;45.944;12.480;2022-11-15T05:12:52;4.70;;;3.38;;
40997;SDS011;26740;45.944;12.480;2022-11-15T05:15:18;4.20;;;3.60;;
40997;SDS011;26740;45.944;12.480;2022-11-15T05:17:44;17.08;;;4.05;;
40997;SDS011;26740;45.944;12.480;2022-11-15T05:20:10;5.85;;;3.45;;
40997;SDS011;26740;45.944;12.480;2022-11-15T05:22:36;6.68;;;4.50;;
40997;SDS011;26740;45.944;12.480;2022-11-15T05:25:02;5.63;;;4.03;;
40997;SDS011;26740;45.944;12.480;2022-11-15T05:27:28;8.52;;;4.43;;
40997;SDS011;26740;45.944;12.480;2022-11-15T05:29:53;9.07;;;4.25;;
40997;SDS011;26740;45.944;12.480;2022-11-15T05:32:19;4.60;;;3.60;;
40997;SDS011;26740;45.944;12.480;2022-11-15T05:34:45;5.43;;;3.70;;
40997;SDS011;26740;45.944;12.480;2022-11-15T05:37:12;8.32;;;3.83;;
40997;SDS011;26740;45.944;12.480;2022-11-15T05:39:39;5.47;;;3.30;;
40997;SDS011;26740;45.944;12.480;2022-11-15T05:42:11;6.45;;;4.40;;
40997;SDS011;26740;45.944;12.480;2022-11-15T05:44:40;7.45;;;3.45;;
40997;SDS011;26740;45.944;12.480;2022-11-15T05:47:10;5.30;;;3.20;;
40997;SDS011;26740;45.944;12.480;2022-11-15T05:49:50;6.00;;;3.90;;
40997;SDS011;26740;45.944;12.480;2022-11-15T05:52:20;8.13;;;5.68;;
40997;SDS011;26740;45.944;12.480;2022-11-15T05:54:49;9.50;;;4.97;;
40997;SDS011;26740;45.944;12.480;2022-11-15T05:57:16;8.25;;;4.63;;
40997;SDS011;26740;45.944;12.480;2022-11-15T05:59:42;11.60;;;5.28;;
40997;SDS011;26740;45.944;12.480;2022-11-15T06:02:08;10.02;;;5.32;;
40997;SDS011;26740;45.944;12.480;2022-11-15T06:04:35;5.22;;;4.15;;
40997;SDS011;26740;45.944;12.480;2022-11-15T06:07:01;8.98;;;4.35;;
40997;SDS011;26740;45.944;12.480;2022-11-15T06:09:27;7.32;;;4.57;;
40997;SDS011;26740;45.944;12.480;2022-11-15T06:11:52;10.48;;;4.95;;
40997;SDS011;26740;45.944;12.480;2022-11-15T06:14:18;11.10;;;6.50;;
40997;SDS011;26740;45.944;12.480;2022-11-15T06:16:44;12.00;;;6.57;;
40997;SDS011;26740;45.944;12.480;2022-11-15T06:19:09;10.23;;;6.32;;
40997;SDS011;26740;45.944;12.480;2022-11-15T06:21:35;8.35;;;5.10;;
40997;SDS011;26740;45.944;12.480;2022-11-15T06:24:01;8.55;;;5.18;;
40997;SDS011;26740;45.944;12.480;2022-11-15T06:26:27;9.80;;;4.88;;
40997;SDS011;26740;45.944;12.480;2022-11-15T06:28:52;14.35;;;6.13;;
40997;SDS011;26740;45.944;12.480;2022-11-15T06:31:18;6.10;;;4.30;;
40997;SDS011;26740;45.944;12.480;2022-11-15T06:33:44;8.50;;;4.55;;
40997;SDS011;26740;45.944;12.480;2022-11-15T06:36:11;10.90;;;6.00;;
40997;SDS011;26740;45.944;12.480;2022-11-15T06:38:42;12.63;;;6.40;;
40997;SDS011;26740;45.944;12.480;2022-11-15T06:41:09;7.32;;;5.18;;
40997;SDS011;26740;45.944;12.480;2022-11-15T06:43:37;9.38;;;5.65;;
40997;SDS011;26740;45.944;12.480;2022-11-15T06:46:03;7.55;;;4.70;;
40997;SDS011;26740;45.944;12.480;2022-11-15T06:48:31;9.65;;;5.00;;
40997;SDS011;26740;45.944;12.480;2022-11-15T06:50:58;7.63;;;4.85;;
40997;SDS011;26740;45.944;12.480;2022-11-15T06:53:25;9.10;;;4.65;;
40997;SDS011;26740;45.944;12.480;2022-11-15T06:55:51;7.90;;;5.63;;
40997;SDS011;26740;45.944;12.480;2022-11-15T06:58:17;8.50;;;5.32;;
40997;SDS011;26740;45.944;12.480;2022-11-15T07:00:43;9.70;;;5.95;;
40997;SDS011;26740;45.944;12.480;2022-11-15T07:03:09;10.30;;;5.63;;
40997;SDS011;26740;45.944;12.480;2022-11-15T07:05:35;13.82;;;5.68;;
40997;SDS011;26740;45.944;12.480;2022-11-15T07:08:01;13.20;;;6.05;;
40997;SDS011;26740;45.944;12.480;2022-11-15T07:10:27;11.50;;;4.97;;
40997;SDS011;26740;45.944;12.480;2022-11-15T07:12:54;8.05;;;4.97;;
40997;SDS011;26740;45.944;12.480;2022-11-15T07:15:21;15.27;;;6.03;;
40997;SDS011;26740;45.944;12.480;2022-11-15T07:17:49;12.55;;;5.93;;
40997;SDS011;26740;45.944;12.480;2022-11-15T07:20:15;11.23;;;6.30;;
40997;SDS011;26740;45.944;12.480;2022-11-15T07:22:42;8.30;;;5.80;;
40997;SDS011;26740;45.944;12.480;2022-11-15T07:25:10;18.08;;;6.60;;
40997;SDS011;26740;45.944;12.480;2022-11-15T07:27:36;8.70;;;5.55;;
40997;SDS011;26740;45.944;12.480;2022-11-15T07:30:02;7.35;;;5.00;;
40997;SDS011;26740;45.944;12.480;2022-11-15T07:32:29;9.05;;;5.07;;
40997;SDS011;26740;45.944;12.480;2022-11-15T07:34:55;7.82;;;5.65;;
40997;SDS011;26740;45.944;12.480;2022-11-15T07:37:20;10.25;;;4.40;;
40997;SDS011;26740;45.944;12.480;2022-11-15T07:39:46;9.45;;;4.20;;
40997;SDS011;26740;45.944;12.480;2022-11-15T07:42:12;7.25;;;3.53;;
40997;SDS011;26740;45.944;12.480;2022-11-15T07:44:56;9.05;;;5.13;;
40997;SDS011;26740;45.944;12.480;2022-11-15T07:47:21;10.57;;;5.82;;
40997;SDS011;26740;45.944;12.480;2022-11-15T07:49:47;5.63;;;4.30;;
40997;SDS011;26740;45.944;12.480;2022-11-15T07:52:13;5.18;;;3.72;;
40997;SDS011;26740;45.944;12.480;2022-11-15T07:54:39;10.00;;;4.85;;
40997;SDS011;26740;45.944;12.480;2022-11-15T07:57:05;10.80;;;4.75;;
40997;SDS011;26740;45.944;12.480;2022-11-15T07:59:32;6.93;;;5.20;;
40997;SDS011;26740;45.944;12.480;2022-11-15T08:02:00;8.30;;;3.97;;
40997;SDS011;26740;45.944;12.480;2022-11-15T08:04:26;9.65;;;4.07;;
40997;SDS011;26740;45.944;12.480;2022-11-15T08:06:51;9.30;;;3.67;;
40997;SDS011;26740;45.944;12.480;2022-11-15T08:09:17;5.75;;;4.25;;
40997;SDS011;26740;45.944;12.480;2022-11-15T08:11:43;8.75;;;4.30;;
40997;SDS011;26740;45.944;12.480;2022-11-15T08:14:09;7.18;;;3.95;;
40997;SDS011;26740;45.944;12.480;2022-11-15T08:16:34;9.82;;;4.28;;
40997;SDS011;26740;45.944;12.480;2022-11-15T08:19:00;9.00;;;3.78;;
40997;SDS011;26740;45.944;12.480;2022-11-15T08:21:26;6.15;;;4.22;;
40997;SDS011;26740;45.944;12.480;2022-11-15T08:23:51;5.25;;;2.90;;
40997;SDS011;26740;45.944;12.480;2022-11-15T08:26:17;4.93;;;3.40;;
40997;SDS011;26740;45.944;12.480;2022-11-15T08:28:43;10.38;;;3.35;;
40997;SDS011;26740;45.944;12.480;2022-11-15T08:31:12;6.97;;;4.13;;
40997;SDS011;26740;45.944;12.480;2022-11-15T08:33:40;6.45;;;3.20;;
40997;SDS011;26740;45.944;12.480;2022-11-15T08:36:06;4.75;;;3.92;;
40997;SDS011;26740;45.944;12.480;2022-11-15T08:38:41;7.80;;;4.50;;
40997;SDS011;26740;45.944;12.480;2022-11-15T08:41:09;4.97;;;3.40;;
40997;SDS011;26740;45.944;12.480;2022-11-15T08:43:37;8.15;;;5.22;;
40997;SDS011;26740;45.944;12.480;2022-11-15T08:46:03;7.97;;;3.88;;
40997;SDS011;26740;45.944;12.480;2022-11-15T08:48:29;6.50;;;3.95;;
40997;SDS011;26740;45.944;12.480;2022-11-15T08:50:55;6.50;;;3.55;;
40997;SDS011;26740;45.944;12.480;2022-11-15T08:53:22;9.95;;;4.47;;
40997;SDS011;26740;45.944;12.480;2022-11-15T08:55:48;8.98;;;3.97;;
40997;SDS011;26740;45.944;12.480;2022-11-15T08:58:14;4.07;;;3.28;;
40997;SDS011;26740;45.944;12.480;2022-11-15T09:00:39;4.93;;;3.65;;
40997;SDS011;26740;45.944;12.480;2022-11-15T09:03:05;5.43;;;3.58;;
40997;SDS011;26740;45.944;12.480;2022-11-15T09:05:35;5.43;;;3.42;;
40997;SDS011;26740;45.944;12.480;2022-11-15T09:08:01;3.65;;;2.92;;
40997;SDS011;26740;45.944;12.480;2022-11-15T09:10:27;5.40;;;3.40;;
40997;SDS011;26740;45.944;12.480;2022-11-15T09:12:53;3.53;;;2.45;;
40997;SDS011;26740;45.944;12.480;2022-11-15T09:15:18;11.10;;;2.58;;
40997;SDS011;26740;45.944;12.480;2022-11-15T09:17:45;5.43;;;3.00;;
40997;SDS011;26740;45.944;12.480;2022-11-15T09:20:11;8.32;;;3.75;;
40997;SDS011;26740;45.944;12.480;2022-11-15T09:22:36;5.20;;;4.22;;
40997;SDS011;26740;45.944;12.480;2022-11-15T09:25:03;9.43;;;3.63;;
40997;SDS011;26740;45.944;12.480;2022-11-15T09:27:30;8.43;;;3.17;;
40997;SDS011;26740;45.944;12.480;2022-11-15T09:29:56;3.78;;;2.83;;
40997;SDS011;26740;45.944;12.480;2022-11-15T09:32:22;6.93;;;4.65;;
40997;SDS011;26740;45.944;12.480;2022-11-15T09:34:51;5.05;;;3.30;;
40997;SDS011;26740;45.944;12.480;2022-11-15T09:37:17;4.93;;;3.42;;
40997;SDS011;26740;45.944;12.480;2022-11-15T09:39:42;5.13;;;3.35;;
40997;SDS011;26740;45.944;12.480;2022-11-15T09:42:23;4.18;;;2.65;;
40997;SDS011;26740;45.944;12.480;2022-11-15T09:45:13;7.15;;;2.38;;
40997;SDS011;26740;45.944;12.480;2022-11-15T09:47:49;3.50;;;2.60;;
40997;SDS011;26740;45.944;12.480;2022-11-15T09:51:08;3.75;;;2.35;;
40997;SDS011;26740;45.944;12.480;2022-11-15T09:53:25;4.15;;;2.70;;
40997;SDS011;26740;45.944;12.480;2022-11-15T09:55:58;4.60;;;2.20;;
40997;SDS011;26740;45.944;12.480;2022-11-15T10:01:04;4.03;;;2.17;;
40997;SDS011;26740;45.944;12.480;2022-11-15T10:03:39;3.17;;;2.42;;
40997;SDS011;26740;45.944;12.480;2022-11-15T10:06:16;3.10;;;2.15;;
40997;SDS011;26740;45.944;12.480;2022-11-15T10:08:56;4.78;;;2.80;;
40997;SDS011;26740;45.944;12.480;2022-11-15T10:11:32;3.85;;;2.28;;
40997;SDS011;26740;45.944;12.480;2022-11-15T10:14:14;3.25;;;2.53;;
40997;SDS011;26740;45.944;12.480;2022-11-15T10:25:00;3.08;;;2.60;;
40997;SDS011;26740;45.944;12.480;2022-11-15T10:27:39;3.95;;;3.00;;
40997;SDS011;26740;45.944;12.480;2022-11-15T10:30:11;6.43;;;2.83;;
40997;SDS011;26740;45.944;12.480;2022-11-15T10:32:40;3.90;;;2.63;;
40997;SDS011;26740;45.944;12.480;2022-11-15T10:35:16;5.15;;;3.47;;
40997;SDS011;26740;45.944;12.480;2022-11-15T10:37:47;4.35;;;3.20;;
40997;SDS011;26740;45.944;12.480;2022-11-15T10:40:21;3.28;;;2.85;;
40997;SDS011;26740;45.944;12.480;2022-11-15T10:42:48;5.30;;;2.83;;
40997;SDS011;26740;45.944;12.480;2022-11-15T10:45:39;6.63;;;2.83;;
40997;SDS011;26740;45.944;12.480;2022-11-15T10:50:37;4.57;;;2.90;;
40997;SDS011;26740;45.944;12.480;2022-11-15T10:53:03;3.70;;;3.00;;
40997;SDS011;26740;45.944;12.480;2022-11-15T10:55:36;2.97;;;2.60;;
40997;SDS011;26740;45.944;12.480;2022-11-15T10:58:06;2.85;;;2.40;;
40997;SDS011;26740;45.944;12.480;2022-11-15T11:00:46;4.38;;;2.95;;
40997;SDS011;26740;45.944;12.480;2022-11-15T11:03:28;4.47;;;2.10;;
40997;SDS011;26740;45.944;12.480;2022-11-15T11:08:34;9.23;;;3.40;;
40997;SDS011;26740;45.944;12.480;2022-11-15T11:11:00;4.22;;;2.75;;
40997;SDS011;26740;45.944;12.480;2022-11-15T11:13:28;4.60;;;2.65;;
40997;SDS011;26740;45.944;12.480;2022-11-15T11:18:29;2.55;;;2.35;;
40997;SDS011;26740;45.944;12.480;2022-11-15T11:21:04;3.30;;;2.05;;
40997;SDS011;26740;45.944;12.480;2022-11-15T11:23:52;2.47;;;1.77;;
40997;SDS011;26740;45.944;12.480;2022-11-15T11:26:35;4.90;;;2.53;;
40997;SDS011;26740;45.944;12.480;2022-11-15T11:32:02;3.47;;;2.13;;
40997;SDS011;26740;45.944;12.480;2022-11-15T11:37:29;3.25;;;2.13;;
40997;SDS011;26740;45.944;12.480;2022-11-15T11:48:48;2.63;;;1.63;;
40997;SDS011;26740;45.944;12.480;2022-11-15T11:54:01;3.25;;;1.67;;
40997;SDS011;26740;45.944;12.480;2022-11-15T11:56:36;7.10;;;2.33;;
40997;SDS011;26740;45.944;12.480;2022-11-15T12:02:15;9.55;;;2.67;;
40997;SDS011;26740;45.944;12.480;2022-11-15T12:04:48;3.97;;;2.15;;
40997;SDS011;26740;45.944;12.480;2022-11-15T12:07:21;3.25;;;2.10;;
40997;SDS011;26740;45.944;12.480;2022-11-15T12:09:55;2.20;;;1.80;;
40997;SDS011;26740;45.944;12.480;2022-11-15T12:12:44;2.10;;;1.85;;
40997;SDS011;26740;45.944;12.480;2022-11-15T12:15:25;3.50;;;2.53;;
40997;SDS011;26740;45.944;12.480;2022-11-15T12:20:22;2.53;;;2.05;;
40997;SDS011;26740;45.944;12.480;2022-11-15T12:22:57;3.17;;;2.00;;
40997;SDS011;26740;45.944;12.480;2022-11-15T12:28:06;7.20;;;2.17;;
40997;SDS011;26740;45.944;12.480;2022-11-15T12:30:56;4.25;;;2.22;;
40997;SDS011;26740;45.944;12.480;2022-11-15T12:33:40;5.47;;;2.22;;
40997;SDS011;26740;45.944;12.480;2022-11-15T12:41:20;3.55;;;2.28;;
40997;SDS011;26740;45.944;12.480;2022-11-15T12:43:56;5.20;;;2.92;;
40997;SDS011;26740;45.944;12.480;2022-11-15T12:48:53;5.07;;;3.75;;
40997;SDS011;26740;45.944;12.480;2022-11-15T13:12:56;7.68;;;5.10;;
40997;SDS011;26740;45.944;12.480;2022-11-15T13:15:45;8.95;;;6.00;;
40997;SDS011;26740;45.944;12.480;2022-11-15T13:20:58;8.73;;;5.82;;
40997;SDS011;26740;45.944;12.480;2022-11-15T13:23:24;10.80;;;6.22;;
40997;SDS011;26740;45.944;12.480;2022-11-15T13:26:12;8.07;;;5.55;;
40997;SDS011;26740;45.944;12.480;2022-11-15T13:33:53;12.15;;;6.65;;
40997;SDS011;26740;45.944;12.480;2022-11-15T13:36:23;8.95;;;6.70;;
40997;SDS011;26740;45.944;12.480;2022-11-15T13:38:59;10.48;;;6.57;;
40997;SDS011;26740;45.944;12.480;2022-11-15T13:41:31;9.88;;;6.20;;
40997;SDS011;26740;45.944;12.480;2022-11-15T13:44:17;11.82;;;6.72;;
40997;SDS011;26740;45.944;12.480;2022-11-15T13:46:45;8.93;;;6.10;;
40997;SDS011;26740;45.944;12.480;2022-11-15T13:49:11;8.27;;;6.20;;
40997;SDS011;26740;45.944;12.480;2022-11-15T13:51:38;10.70;;;7.30;;
40997;SDS011;26740;45.944;12.480;2022-11-15T13:56:40;10.38;;;7.03;;
40997;SDS011;26740;45.944;12.480;2022-11-15T13:59:19;13.30;;;7.72;;
40997;SDS011;26740;45.944;12.480;2022-11-15T14:01:53;13.25;;;8.10;;
40997;SDS011;26740;45.944;12.480;2022-11-15T14:04:21;12.75;;;7.80;;
40997;SDS011;26740;45.944;12.480;2022-11-15T14:06:58;16.77;;;8.25;;
40997;SDS011;26740;45.944;12.480;2022-11-15T14:09:38;16.00;;;8.63;;
40997;SDS011;26740;45.944;12.480;2022-11-15T14:12:23;10.85;;;7.03;;
40997;SDS011;26740;45.944;12.480;2022-11-15T14:14:58;11.30;;;7.50;;
40997;SDS011;26740;45.944;12.480;2022-11-15T14:19:53;11.00;;;6.95;;
40997;SDS011;26740;45.944;12.480;2022-11-15T14:22:24;10.70;;;6.97;;
40997;SDS011;26740;45.944;12.480;2022-11-15T14:27:38;10.45;;;6.45;;
40997;SDS011;26740;45.944;12.480;2022-11-15T14:30:04;14.07;;;6.28;;
40997;SDS011;26740;45.944;12.480;2022-11-15T14:32:40;13.40;;;7.13;;
40997;SDS011;26740;45.944;12.480;2022-11-15T14:35:14;11.13;;;7.32;;
40997;SDS011;26740;45.944;12.480;2022-11-15T14:37:42;12.68;;;7.10;;
40997;SDS011;26740;45.944;12.480;2022-11-15T14:40:11;8.27;;;6.30;;
40997;SDS011;26740;45.944;12.480;2022-11-15T14:42:38;9.65;;;6.78;;
40997;SDS011;26740;45.944;12.480;2022-11-15T14:45:09;9.35;;;7.13;;
40997;SDS011;26740;45.944;12.480;2022-11-15T14:47:41;10.30;;;6.85;;
40997;SDS011;26740;45.944;12.480;2022-11-15T14:50:17;11.25;;;6.75;;
40997;SDS011;26740;45.944;12.480;2022-11-15T14:52:44;9.68;;;7.03;;
40997;SDS011;26740;45.944;12.480;2022-11-15T14:55:43;10.75;;;7.32;;
40997;SDS011;26740;45.944;12.480;2022-11-15T14:58:02;10.27;;;6.70;;
40997;SDS011;26740;45.944;12.480;2022-11-15T15:00:30;10.13;;;7.13;;
40997;SDS011;26740;45.944;12.480;2022-11-15T15:02:56;10.15;;;6.72;;
40997;SDS011;26740;45.944;12.480;2022-11-15T15:05:23;11.15;;;6.43;;
40997;SDS011;26740;45.944;12.480;2022-11-15T15:07:51;11.15;;;7.40;;
40997;SDS011;26740;45.944;12.480;2022-11-15T15:10:18;11.07;;;6.53;;
40997;SDS011;26740;45.944;12.480;2022-11-15T15:12:44;13.27;;;7.53;;
40997;SDS011;26740;45.944;12.480;2022-11-15T15:15:24;9.68;;;7.78;;
40997;SDS011;26740;45.944;12.480;2022-11-15T15:17:51;8.50;;;7.00;;
40997;SDS011;26740;45.944;12.480;2022-11-15T15:20:17;11.95;;;7.18;;
40997;SDS011;26740;45.944;12.480;2022-11-15T15:22:42;9.30;;;7.35;;
40997;SDS011;26740;45.944;12.480;2022-11-15T15:25:23;9.30;;;6.60;;
40997;SDS011;26740;45.944;12.480;2022-11-15T15:27:52;8.13;;;6.35;;
40997;SDS011;26740;45.944;12.480;2022-11-15T15:30:19;8.27;;;6.40;;
40997;SDS011;26740;45.944;12.480;2022-11-15T15:32:45;8.20;;;5.68;;
40997;SDS011;26740;45.944;12.480;2022-11-15T15:35:11;10.82;;;7.13;;
40997;SDS011;26740;45.944;12.480;2022-11-15T15:37:38;11.57;;;6.85;;
40997;SDS011;26740;45.944;12.480;2022-11-15T15:40:16;11.35;;;7.05;;
40997;SDS011;26740;45.944;12.480;2022-11-15T15:42:45;15.35;;;8.10;;
40997;SDS011;26740;45.944;12.480;2022-11-15T15:45:11;12.95;;;8.45;;
40997;SDS011;26740;45.944;12.480;2022-11-15T15:47:37;16.42;;;10.52;;
40997;SDS011;26740;45.944;12.480;2022-11-15T15:50:08;16.23;;;9.73;;
40997;SDS011;26740;45.944;12.480;2022-11-15T15:52:47;17.05;;;9.90;;
40997;SDS011;26740;45.944;12.480;2022-11-15T15:55:13;16.85;;;10.55;;
40997;SDS011;26740;45.944;12.480;2022-11-15T15:57:39;18.08;;;11.13;;
40997;SDS011;26740;45.944;12.480;2022-11-15T16:00:04;17.80;;;11.23;;
40997;SDS011;26740;45.944;12.480;2022-11-15T16:02:31;17.05;;;11.02;;
40997;SDS011;26740;45.944;12.480;2022-11-15T16:04:56;19.70;;;11.85;;
40997;SDS011;26740;45.944;12.480;2022-11-15T16:07:22;16.45;;;11.55;;
40997;SDS011;26740;45.944;12.480;2022-11-15T16:09:49;19.55;;;12.45;;
40997;SDS011;26740;45.944;12.480;2022-11-15T16:12:37;20.88;;;13.93;;
40997;SDS011;26740;45.944;12.480;2022-11-15T16:15:02;24.15;;;12.90;;
40997;SDS011;26740;45.944;12.480;2022-11-15T16:17:30;20.15;;;13.35;;
40997;SDS011;26740;45.944;12.480;2022-11-15T16:19:58;23.23;;;15.10;;
40997;SDS011;26740;45.944;12.480;2022-11-15T16:22:25;20.88;;;14.88;;
40997;SDS011;26740;45.944;12.480;2022-11-15T16:24:50;21.38;;;15.00;;
40997;SDS011;26740;45.944;12.480;2022-11-15T16:27:17;28.85;;;15.30;;
40997;SDS011;26740;45.944;12.480;2022-11-15T16:29:44;23.08;;;15.02;;
40997;SDS011;26740;45.944;12.480;2022-11-15T16:32:11;24.63;;;15.57;;
40997;SDS011;26740;45.944;12.480;2022-11-15T16:34:37;33.15;;;18.70;;
40997;SDS011;26740;45.944;12.480;2022-11-15T16:37:03;33.95;;;19.95;;
40997;SDS011;26740;45.944;12.480;2022-11-15T16:39:30;38.95;;;23.17;;
40997;SDS011;26740;45.944;12.480;2022-11-15T16:41:57;39.60;;;23.85;;
40997;SDS011;26740;45.944;12.480;2022-11-15T16:44:23;33.65;;;19.35;;
40997;SDS011;26740;45.944;12.480;2022-11-15T16:46:49;24.73;;;16.55;;
40997;SDS011;26740;45.944;12.480;2022-11-15T16:49:19;23.73;;;15.48;;
40997;SDS011;26740;45.944;12.480;2022-11-15T16:51:46;26.17;;;16.05;;